createdAt,value
2022-09-03T00:00:19.626Z,100736.00
2022-09-03T00:03:02.612Z,100730.66
2022-09-03T00:05:41.712Z,100725.34
2022-09-03T00:08:18.750Z,100731.59
2022-09-03T00:10:56.821Z,100729.78
2022-09-03T00:13:30.788Z,100723.59
2022-09-03T00:15:59.777Z,100723.63
2022-09-03T00:18:31.346Z,100718.31
2022-09-03T00:21:09.241Z,100723.63
2022-09-03T00:23:40.491Z,100720.97
2022-09-03T00:26:13.049Z,100721.00
2022-09-03T00:28:47.672Z,100720.13
2022-09-03T00:31:42.804Z,100722.78
2022-09-03T00:34:32.534Z,100721.88
2022-09-03T00:36:59.077Z,100710.38
2022-09-03T00:39:27.781Z,100713.03
2022-09-03T00:42:20.990Z,100699.69
2022-09-03T00:45:25.540Z,100711.28
2022-09-03T00:48:12.449Z,100713.03
2022-09-03T00:51:14.743Z,100709.50
2022-09-03T00:54:19.798Z,100704.16
2022-09-03T00:56:56.409Z,100703.31
2022-09-03T00:59:42.859Z,100701.50
2022-09-03T01:02:31.185Z,100713.03
2022-09-03T01:05:11.850Z,100711.28
2022-09-03T01:07:54.596Z,100713.06
2022-09-03T01:10:38.645Z,100712.16
2022-09-03T01:13:14.556Z,100710.38
2022-09-03T01:15:59.498Z,100713.03
2022-09-03T01:18:38.029Z,100707.72
2022-09-03T01:21:13.547Z,100705.09
2022-09-03T01:24:31.782Z,100706.81
2022-09-03T01:27:27.011Z,100705.91
2022-09-03T01:30:04.266Z,100698.84
2022-09-03T01:32:38.496Z,100704.16
2022-09-03T01:35:15.154Z,100708.59
2022-09-03T01:37:58.390Z,100707.72
2022-09-03T01:40:39.198Z,100697.94
2022-09-03T01:43:42.165Z,100713.88
2022-09-03T01:46:23.617Z,100712.13
2022-09-03T01:48:53.736Z,100716.56
2022-09-03T01:51:23.971Z,100708.53
2022-09-03T01:54:21.827Z,100717.44
2022-09-03T01:57:26.432Z,100716.50
2022-09-03T02:00:20.577Z,100724.50
2022-09-03T02:02:51.301Z,100715.63
2022-09-03T02:05:26.993Z,100712.09
2022-09-03T02:08:01.455Z,100722.69
2022-09-03T02:10:41.564Z,100720.94
2022-09-03T02:13:28.717Z,100718.25
2022-09-03T02:16:01.679Z,100720.06
2022-09-03T02:18:41.362Z,100719.16
2022-09-03T02:21:10.692Z,100715.59
2022-09-03T02:23:40.722Z,100715.56
2022-09-03T02:26:10.074Z,100717.34
2022-09-03T02:28:37.169Z,100715.56
2022-09-03T02:31:04.480Z,100718.19
2022-09-03T02:33:38.474Z,100715.53
2022-09-03T02:36:07.710Z,100719.06
2022-09-03T02:38:34.831Z,100712.88
2022-09-03T02:41:01.689Z,100715.50
2022-09-03T02:43:40.969Z,100705.75
2022-09-03T02:46:12.956Z,100708.41
2022-09-03T02:48:39.529Z,100709.31
2022-09-03T02:51:13.549Z,100712.81
2022-09-03T02:53:40.635Z,100715.47
2022-09-03T02:56:07.262Z,100711.91
2022-09-03T02:58:34.017Z,100716.34
2022-09-03T03:01:01.131Z,100724.31
2022-09-03T03:03:27.987Z,100716.34
2022-09-03T03:05:57.897Z,100722.50
2022-09-03T03:08:27.705Z,100710.13
2022-09-03T03:11:00.708Z,100709.22
2022-09-03T03:13:29.116Z,100705.66
2022-09-03T03:15:57.325Z,100712.75
2022-09-03T03:18:24.141Z,100710.97
2022-09-03T03:20:51.434Z,100700.31
2022-09-03T03:23:18.082Z,100702.97
2022-09-03T03:25:44.809Z,100702.97
2022-09-03T03:28:11.401Z,100700.31
2022-09-03T03:30:40.277Z,100696.75
2022-09-03T03:33:07.284Z,100709.97
2022-09-03T03:35:33.939Z,100701.13
2022-09-03T03:38:00.505Z,100699.34
2022-09-03T03:40:27.197Z,100710.84
2022-09-03T03:42:54.562Z,100707.28
2022-09-03T03:45:21.337Z,100714.34
2022-09-03T03:47:48.031Z,100709.03
2022-09-03T03:50:14.525Z,100705.50
2022-09-03T03:52:41.013Z,100708.16
2022-09-03T03:55:07.872Z,100710.75
2022-09-03T03:57:34.408Z,100709.91
2022-09-03T04:00:01.084Z,100716.06
2022-09-03T04:02:40.923Z,100717.81
2022-09-03T04:05:07.860Z,100711.59
2022-09-03T04:07:34.933Z,100709.84
2022-09-03T04:10:01.690Z,100708.94
2022-09-03T04:12:28.299Z,100707.13
2022-09-03T04:14:54.826Z,100710.66
2022-09-03T04:17:25.143Z,100702.69
2022-09-03T04:19:52.126Z,100700.88
2022-09-03T04:22:19.619Z,100692.00
2022-09-03T04:24:46.262Z,100696.44
2022-09-03T04:27:12.793Z,100688.44
2022-09-03T04:29:39.326Z,100688.44
2022-09-03T04:32:24.740Z,100689.34
2022-09-03T04:34:51.252Z,100690.19
2022-09-03T04:37:19.899Z,100693.72
2022-09-03T04:39:46.743Z,100692.84
2022-09-03T04:42:13.321Z,100692.78
2022-09-03T04:44:41.321Z,100685.72
2022-09-03T04:47:08.048Z,100691.03
2022-09-03T04:49:34.856Z,100696.34
2022-09-03T04:52:02.608Z,100690.13
2022-09-03T04:54:29.493Z,100693.69
2022-09-03T04:56:56.588Z,100691.03
2022-09-03T04:59:23.117Z,100695.47
2022-09-03T05:01:49.730Z,100701.66
2022-09-03T05:04:16.397Z,100694.59
2022-09-03T05:06:43.451Z,100694.63
2022-09-03T05:09:09.959Z,100694.66
2022-09-03T05:11:36.622Z,100700.88
2022-09-03T05:14:05.746Z,100690.31
2022-09-03T05:16:32.423Z,100695.63
2022-09-03T05:19:00.845Z,100704.53
2022-09-03T05:21:28.587Z,100701.00
2022-09-03T05:23:55.502Z,100699.28
2022-09-03T05:26:26.644Z,100693.13
2022-09-03T05:28:58.984Z,100685.19
2022-09-03T05:31:28.247Z,100691.44
2022-09-03T05:33:58.562Z,100689.69
2022-09-03T05:36:27.406Z,100695.91
2022-09-03T05:38:54.764Z,100695.03
2022-09-03T05:41:23.167Z,100695.94
2022-09-03T05:43:59.168Z,100696.84
2022-09-03T05:46:32.254Z,100702.16
2022-09-03T05:49:02.408Z,100695.09
2022-09-03T05:51:30.220Z,100707.50
2022-09-03T05:53:58.027Z,100703.94
2022-09-03T05:56:26.965Z,100706.66
2022-09-03T05:58:56.879Z,100711.06
2022-09-03T06:01:24.809Z,100711.09
2022-09-03T06:03:57.789Z,100713.75
2022-09-03T06:06:25.649Z,100712.88
2022-09-03T06:08:53.552Z,100716.44
2022-09-03T06:11:20.750Z,100720.00
2022-09-03T06:13:47.561Z,100718.22
2022-09-03T06:16:14.158Z,100711.19
2022-09-03T06:18:40.828Z,100716.50
2022-09-03T06:21:08.289Z,100712.09
2022-09-03T06:23:36.277Z,100711.19
2022-09-03T06:26:13.881Z,100712.09
2022-09-03T06:28:43.647Z,100715.66
2022-09-03T06:31:15.580Z,100721.88
2022-09-03T06:33:43.312Z,100714.78
2022-09-03T06:36:15.451Z,100713.03
2022-09-03T06:38:43.055Z,100710.34
2022-09-03T06:41:13.463Z,100712.16
2022-09-03T06:43:42.192Z,100716.59
2022-09-03T06:46:12.424Z,100722.81
2022-09-03T06:48:45.539Z,100721.03
2022-09-03T06:51:17.817Z,100726.34
2022-09-03T06:53:47.917Z,100716.56
2022-09-03T06:56:25.977Z,100717.47
2022-09-03T06:58:57.802Z,100721.88
2022-09-03T07:01:31.200Z,100726.31
2022-09-03T07:04:05.400Z,100720.09
2022-09-03T07:06:37.111Z,100719.19
2022-09-03T07:09:04.130Z,100722.72
2022-09-03T07:11:33.329Z,100725.38
2022-09-03T07:14:00.481Z,100720.03
2022-09-03T07:16:30.514Z,100725.34
2022-09-03T07:18:57.612Z,100719.09
2022-09-03T07:21:27.026Z,100712.84
2022-09-03T07:23:55.199Z,100716.41
2022-09-03T07:26:24.219Z,100712.81
2022-09-03T07:28:52.175Z,100716.31
2022-09-03T07:31:26.352Z,100714.50
2022-09-03T07:33:57.186Z,100710.91
2022-09-03T07:36:26.288Z,100719.75
2022-09-03T07:38:59.155Z,100717.94
2022-09-03T07:41:29.149Z,100713.44
2022-09-03T07:43:57.101Z,100716.06
2022-09-03T07:46:26.503Z,100719.56
2022-09-03T07:48:58.385Z,100706.16
2022-09-03T07:51:27.856Z,100700.75
2022-09-03T07:53:57.809Z,100712.28
2022-09-03T07:56:25.792Z,100701.53
2022-09-03T07:58:53.188Z,100705.03
2022-09-03T08:01:21.781Z,100702.31
2022-09-03T08:03:50.272Z,100700.44
2022-09-03T08:06:18.797Z,100694.13
2022-09-03T08:08:45.713Z,100706.56
2022-09-03T08:11:17.347Z,100706.47
2022-09-03T08:13:46.513Z,100701.09
2022-09-03T08:16:14.380Z,100708.13
2022-09-03T08:18:41.296Z,100718.66
2022-09-03T08:21:15.404Z,100713.28
2022-09-03T08:23:44.355Z,100712.28
2022-09-03T08:26:11.949Z,100712.19
2022-09-03T08:28:39.364Z,100712.97
2022-09-03T08:31:07.026Z,100708.38
2022-09-03T08:33:40.592Z,100708.34
2022-09-03T08:36:15.881Z,100707.38
2022-09-03T08:38:46.290Z,100718.00
2022-09-03T08:41:23.665Z,100710.78
2022-09-03T08:44:27.960Z,100713.31
2022-09-03T08:47:48.432Z,100710.50
2022-09-03T08:50:19.255Z,100717.47
2022-09-03T08:52:50.012Z,100716.47
2022-09-03T08:55:27.072Z,100711.88
2022-09-03T08:58:15.635Z,100716.19
2022-09-03T09:00:50.300Z,100708.94
2022-09-03T09:04:00.490Z,100711.47
2022-09-03T09:06:50.255Z,100714.03
2022-09-03T09:09:28.425Z,100711.19
2022-09-03T09:12:10.133Z,100705.75
2022-09-03T09:14:58.492Z,100710.94
2022-09-03T09:17:27.973Z,100701.91
2022-09-03T09:20:10.002Z,100700.00
2022-09-03T09:22:47.414Z,100709.69
2022-09-03T09:25:20.499Z,100704.22
2022-09-03T09:27:52.233Z,100699.59
2022-09-03T09:30:19.868Z,100693.22
2022-09-03T09:32:47.295Z,100690.47
2022-09-03T09:35:17.429Z,100690.31
2022-09-03T09:37:55.223Z,100691.09
2022-09-03T09:40:45.004Z,100692.81
2022-09-03T09:43:21.489Z,100693.59
2022-09-03T09:45:50.385Z,100690.75
2022-09-03T09:48:27.120Z,100683.47
2022-09-03T09:51:06.416Z,100677.09
2022-09-03T09:53:33.501Z,100682.38
2022-09-03T09:56:00.487Z,100676.91
2022-09-03T09:58:30.874Z,100690.19
2022-09-03T10:01:13.085Z,100693.66
2022-09-03T10:03:48.485Z,100686.38
2022-09-03T10:06:35.313Z,100673.72
2022-09-03T10:09:14.121Z,100672.72
2022-09-03T10:11:45.097Z,100678.91
2022-09-03T10:14:24.442Z,100681.56
2022-09-03T10:17:00.116Z,100679.81
2022-09-03T10:19:40.399Z,100670.81
2022-09-03T10:22:13.184Z,100672.50
2022-09-03T10:24:58.124Z,100666.16
2022-09-03T10:27:25.906Z,100666.03
2022-09-03T10:29:53.404Z,100662.34
2022-09-03T10:32:51.210Z,100661.31
2022-09-03T10:35:29.166Z,100655.75
2022-09-03T10:38:06.347Z,100652.88
2022-09-03T10:40:57.126Z,100666.09
2022-09-03T10:43:55.748Z,100656.09
2022-09-03T10:46:27.656Z,100647.03
2022-09-03T10:49:17.879Z,100646.09
2022-09-03T10:52:15.613Z,100647.84
2022-09-03T10:55:15.146Z,100642.34
2022-09-03T10:58:23.989Z,100638.72
2022-09-03T11:01:01.988Z,100637.63
2022-09-03T11:03:48.182Z,100635.78
2022-09-03T11:06:43.655Z,100627.56
2022-09-03T11:09:26.617Z,100632.84
2022-09-03T11:12:01.783Z,100629.16
2022-09-03T11:15:05.243Z,100627.22
2022-09-03T11:17:46.817Z,100621.78
2022-09-03T11:20:25.065Z,100612.78
2022-09-03T11:23:00.045Z,100618.94
2022-09-03T11:25:36.136Z,100615.13
2022-09-03T11:28:21.214Z,100616.75
2022-09-03T11:31:38.339Z,100618.56
2022-09-03T11:34:23.674Z,100608.56
2022-09-03T11:37:24.130Z,100616.53
2022-09-03T11:39:59.820Z,100610.25
2022-09-03T11:42:45.256Z,100609.53
2022-09-03T11:45:30.078Z,100611.31
2022-09-03T11:47:57.013Z,100609.16
2022-09-03T11:50:26.668Z,100607.75
2022-09-03T11:53:12.980Z,100610.16
2022-09-03T11:56:00.721Z,100601.09
2022-09-03T11:58:35.166Z,100602.09
2022-09-03T12:01:04.281Z,100599.50
2022-09-03T12:04:05.485Z,100599.50
2022-09-03T12:06:46.943Z,100606.44
2022-09-03T12:09:53.722Z,100606.19
2022-09-03T12:12:57.228Z,100612.47
2022-09-03T12:15:55.068Z,100604.31
2022-09-03T12:18:25.659Z,100605.94
2022-09-03T12:21:01.188Z,100605.03
2022-09-03T12:23:45.010Z,100609.53
2022-09-03T12:26:17.435Z,100595.19
2022-09-03T12:29:05.931Z,100592.41
2022-09-03T12:31:48.476Z,100589.59
2022-09-03T12:34:17.490Z,100581.41
2022-09-03T12:36:49.352Z,100576.03
2022-09-03T12:39:18.071Z,100580.53
2022-09-03T12:42:05.738Z,100579.47
2022-09-03T12:44:33.398Z,100574.03
2022-09-03T12:47:35.537Z,100572.03
2022-09-03T12:50:07.870Z,100580.06
2022-09-03T12:52:39.182Z,100566.53
2022-09-03T12:55:08.436Z,100577.28
2022-09-03T12:57:40.709Z,100574.50
2022-09-03T13:00:10.451Z,100568.09
2022-09-03T13:02:53.426Z,100558.13
2022-09-03T13:05:35.146Z,100561.69
2022-09-03T13:08:07.078Z,100559.81
2022-09-03T13:10:41.980Z,100553.50
2022-09-03T13:13:28.010Z,100553.50
2022-09-03T13:16:09.943Z,100548.13
2022-09-03T13:19:03.908Z,100548.97
2022-09-03T13:21:36.009Z,100548.00
2022-09-03T13:24:20.196Z,100555.91
2022-09-03T13:26:55.753Z,100553.09
2022-09-03T13:29:43.600Z,100547.56
2022-09-03T13:32:29.103Z,100543.19
2022-09-03T13:35:09.140Z,100543.97
2022-09-03T13:37:45.537Z,100538.41
2022-09-03T13:40:18.137Z,100544.69
2022-09-03T13:43:02.809Z,100543.72
2022-09-03T13:45:37.646Z,100540.13
2022-09-03T13:48:29.357Z,100532.03
2022-09-03T13:51:22.319Z,100543.63
2022-09-03T13:54:22.327Z,100539.03
2022-09-03T13:57:02.471Z,100534.41
2022-09-03T13:59:50.790Z,100537.91
2022-09-03T14:02:52.643Z,100536.06
2022-09-03T14:05:42.197Z,100545.81
2022-09-03T14:08:14.507Z,100534.91
2022-09-03T14:11:20.376Z,100544.78
2022-09-03T14:14:03.168Z,100515.97
2022-09-03T14:16:55.596Z,100538.34
2022-09-03T14:19:39.151Z,100533.75
2022-09-03T14:22:24.590Z,100530.06
2022-09-03T14:25:01.337Z,100536.34
2022-09-03T14:27:30.742Z,100531.13
2022-09-03T14:30:17.996Z,100537.47
2022-09-03T14:32:56.434Z,100531.25
2022-09-03T14:35:38.541Z,100537.59
2022-09-03T14:38:30.594Z,100521.41
2022-09-03T14:41:05.804Z,100523.16
2022-09-03T14:44:00.068Z,100526.81
2022-09-03T14:46:35.527Z,100532.13
2022-09-03T14:50:03.800Z,100525.75
2022-09-03T14:52:57.971Z,100529.34
2022-09-03T14:55:33.364Z,100529.34
2022-09-03T14:58:29.412Z,100533.84
2022-09-03T15:01:02.675Z,100532.06
2022-09-03T15:04:24.427Z,100533.84
2022-09-03T15:07:27.779Z,100527.47
2022-09-03T15:10:04.882Z,100529.22
2022-09-03T15:12:43.195Z,100534.63
2022-09-03T15:15:24.735Z,100531.06
2022-09-03T15:18:05.077Z,100535.50
2022-09-03T15:20:52.883Z,100537.16
2022-09-03T15:23:41.179Z,100547.00
2022-09-03T15:26:25.800Z,100539.88
2022-09-03T15:29:27.377Z,100540.81
2022-09-03T15:32:06.108Z,100535.41
2022-09-03T15:35:23.771Z,100535.41
2022-09-03T15:37:58.694Z,100538.06
2022-09-03T15:40:33.223Z,100539.75
2022-09-03T15:43:33.862Z,100545.91
2022-09-03T15:46:13.562Z,100543.94
2022-09-03T15:48:59.646Z,100535.59
2022-09-03T15:51:43.107Z,100533.38
2022-09-03T15:54:37.401Z,100536.19
2022-09-03T15:57:12.436Z,100524.72
2022-09-03T15:59:57.090Z,100534.16
2022-09-03T16:02:34.001Z,100525.16
2022-09-03T16:05:45.697Z,100533.66
2022-09-03T16:08:49.553Z,100535.47
2022-09-03T16:11:24.959Z,100528.50
2022-09-03T16:14:17.661Z,100527.50
2022-09-03T16:17:10.198Z,100517.16
2022-09-03T16:19:59.780Z,100519.09
2022-09-03T16:22:29.471Z,100522.56
2022-09-03T16:25:16.812Z,100516.13
2022-09-03T16:28:05.508Z,100525.25
2022-09-03T16:30:58.660Z,100526.41
2022-09-03T16:33:48.943Z,100533.44
2022-09-03T16:37:14.824Z,100529.81
2022-09-03T16:40:05.960Z,100524.47
2022-09-03T16:43:01.375Z,100528.16
2022-09-03T16:46:02.456Z,100535.91
2022-09-03T16:48:35.599Z,100535.63
2022-09-03T16:51:08.157Z,100538.75
2022-09-03T16:54:09.176Z,100539.91
2022-09-03T16:56:50.989Z,100538.44
2022-09-03T16:59:58.963Z,100548.78
2022-09-03T17:02:40.652Z,100550.31
2022-09-03T17:05:40.525Z,100542.47
2022-09-03T17:08:31.142Z,100540.00
2022-09-03T17:11:30.152Z,100532.84
2022-09-03T17:14:35.747Z,100540.59
2022-09-03T17:17:34.469Z,100548.19
2022-09-03T17:20:21.380Z,100546.09
2022-09-03T17:23:05.760Z,100546.41
2022-09-03T17:25:38.112Z,100549.94
2022-09-03T17:28:42.462Z,100538.00
2022-09-03T17:31:24.192Z,100551.25
2022-09-03T17:34:00.120Z,100542.53
2022-09-03T17:36:31.475Z,100548.13
2022-09-03T17:39:16.827Z,100552.69
2022-09-03T17:42:06.450Z,100558.13
2022-09-03T17:45:21.788Z,100557.19
2022-09-03T17:48:18.991Z,100558.19
2022-09-03T17:51:32.043Z,100563.50
2022-09-03T17:54:23.460Z,100564.38
2022-09-03T17:57:10.596Z,100565.06
2022-09-03T17:59:56.034Z,100587.25
2022-09-03T18:02:30.101Z,100581.47
2022-09-03T18:05:19.672Z,100586.53
2022-09-03T18:08:00.660Z,100587.00
2022-09-03T18:10:43.196Z,100590.16
2022-09-03T18:13:48.506Z,100598.66
2022-09-03T18:16:28.608Z,100591.03
2022-09-03T18:19:06.585Z,100592.28
2022-09-03T18:21:57.442Z,100604.31
2022-09-03T18:25:03.661Z,100603.78
2022-09-03T18:28:17.943Z,100604.13
2022-09-03T18:31:03.949Z,100607.16
2022-09-03T18:33:49.232Z,100607.41
2022-09-03T18:36:34.089Z,100613.91
2022-09-03T18:39:34.490Z,100618.69
2022-09-03T18:42:37.501Z,100620.72
2022-09-03T18:46:07.919Z,100623.69
2022-09-03T18:49:13.643Z,100626.66
2022-09-03T18:52:11.514Z,100625.09
2022-09-03T18:55:22.215Z,100613.72
2022-09-03T18:58:12.980Z,100624.63
2022-09-03T19:01:14.457Z,100625.75
2022-09-03T19:04:08.310Z,100625.91
2022-09-03T19:07:09.416Z,100633.22
2022-09-03T19:10:07.703Z,100630.66
2022-09-03T19:13:12.916Z,100638.03
2022-09-03T19:16:13.429Z,100640.88
2022-09-03T19:19:15.646Z,100639.25
2022-09-03T19:22:11.677Z,100638.47
2022-09-03T19:24:56.885Z,100642.19
2022-09-03T19:27:58.889Z,100643.22
2022-09-03T19:30:56.856Z,100642.47
2022-09-03T19:33:55.253Z,100648.84
2022-09-03T19:37:09.274Z,100648.97
2022-09-03T19:40:21.888Z,100648.16
2022-09-03T19:43:45.424Z,100652.72
2022-09-03T19:46:41.286Z,100651.06
2022-09-03T19:50:00.679Z,100653.84
2022-09-03T19:53:07.941Z,100653.06
2022-09-03T19:55:57.877Z,100649.56
2022-09-03T19:58:47.401Z,100658.56
2022-09-03T20:01:32.737Z,100663.09
2022-09-03T20:04:22.332Z,100662.25
2022-09-03T20:07:07.296Z,100657.03
2022-09-03T20:09:58.908Z,100660.66
2022-09-03T20:12:29.963Z,100666.97
2022-09-03T20:14:56.594Z,100667.06
2022-09-03T20:17:36.458Z,100668.00
2022-09-03T20:20:15.206Z,100668.06
2022-09-03T20:22:53.847Z,100674.41
2022-09-03T20:25:58.159Z,100678.91
2022-09-03T20:28:52.250Z,100684.34
2022-09-03T20:31:31.566Z,100685.25
2022-09-03T20:34:16.237Z,100688.84
2022-09-03T20:37:12.055Z,100688.00
2022-09-03T20:40:14.184Z,100691.59
2022-09-03T20:42:56.792Z,100690.81
2022-09-03T20:45:31.993Z,100689.06
2022-09-03T20:48:17.097Z,100693.56
2022-09-03T20:50:57.381Z,100692.75
2022-09-03T20:54:02.109Z,100700.81
2022-09-03T20:57:06.547Z,100699.06
2022-09-03T21:00:12.478Z,100705.34
2022-09-03T21:03:09.042Z,100700.94
2022-09-03T21:05:58.141Z,100709.03
2022-09-03T21:09:01.017Z,100711.72
2022-09-03T21:12:21.580Z,100708.19
2022-09-03T21:14:50.831Z,100706.47
2022-09-03T21:17:42.158Z,100709.16
2022-09-03T21:20:15.895Z,100706.53
2022-09-03T21:22:53.793Z,100699.44
2022-09-03T21:25:26.452Z,100708.38
2022-09-03T21:27:59.494Z,100711.03
2022-09-03T21:30:27.427Z,100708.41
2022-09-03T21:33:04.748Z,100706.66
2022-09-03T21:35:53.674Z,100709.41
2022-09-03T21:38:31.220Z,100699.66
2022-09-03T21:41:07.455Z,100717.47
2022-09-03T21:43:45.299Z,100712.16
2022-09-03T21:46:31.091Z,100715.69
2022-09-03T21:49:07.294Z,100718.41
2022-09-03T21:51:41.328Z,100725.53
2022-09-03T21:54:14.440Z,100722.91
2022-09-03T21:56:50.618Z,100730.94
2022-09-03T21:59:45.171Z,100738.09
2022-09-03T22:02:23.417Z,100730.09
2022-09-03T22:04:51.041Z,100730.13
2022-09-03T22:07:53.171Z,100733.72
2022-09-03T22:10:40.536Z,100733.72
2022-09-03T22:13:21.084Z,100733.75
2022-09-03T22:15:55.789Z,100728.44
2022-09-03T22:18:29.120Z,100732.91
2022-09-03T22:21:20.523Z,100745.34
2022-09-03T22:24:07.268Z,100737.38
2022-09-03T22:26:49.160Z,100739.16
2022-09-03T22:29:24.502Z,100739.16
2022-09-03T22:32:09.749Z,100733.88
2022-09-03T22:34:43.435Z,100736.56
2022-09-03T22:37:22.844Z,100742.81
2022-09-03T22:39:49.785Z,100741.91
2022-09-03T22:42:32.321Z,100741.03
2022-09-03T22:45:05.756Z,100737.50
2022-09-03T22:47:44.716Z,100734.84
2022-09-03T22:50:38.556Z,100730.41
2022-09-03T22:53:25.901Z,100726.00
2022-09-03T22:56:02.898Z,100727.81
2022-09-03T22:58:37.125Z,100726.94
2022-09-03T23:01:09.500Z,100730.50
2022-09-03T23:03:50.967Z,100734.94
2022-09-03T23:06:25.941Z,100733.16
2022-09-03T23:08:59.877Z,100737.66
2022-09-03T23:11:32.509Z,100739.44
2022-09-03T23:14:04.744Z,100749.22
2022-09-03T23:16:38.849Z,100748.31
2022-09-03T23:21:58.943Z,100753.69
2022-09-03T23:25:07.321Z,100749.28
2022-09-03T23:27:50.614Z,100757.25
2022-09-03T23:30:17.272Z,100759.00
2022-09-03T23:32:44.893Z,100758.13
2022-09-03T23:35:17.729Z,100751.94
2022-09-03T23:38:25.571Z,100755.50
2022-09-03T23:40:56.942Z,100756.38
2022-09-03T23:43:44.302Z,100751.97
2022-09-03T23:46:30.844Z,100755.50
2022-09-03T23:49:16.496Z,100759.94
2022-09-03T23:52:03.039Z,100752.88
2022-09-03T23:54:39.740Z,100759.97
2022-09-03T23:57:16.474Z,100759.09
